createdAt,value
2019-04-20T00:01:22.836Z,92.03
2019-04-20T00:03:48.189Z,94.05
2019-04-20T00:06:17.553Z,93.40
2019-04-20T00:08:47.497Z,90.90
2019-04-20T00:11:25.482Z,91.63
2019-04-20T00:13:54.935Z,92.85
2019-04-20T00:16:16.920Z,91.97
2019-04-20T00:18:50.351Z,90.80
2019-04-20T00:21:35.618Z,94.13
2019-04-20T00:24:16.478Z,92.18
2019-04-20T00:27:17.811Z,93.97
2019-04-20T00:29:30.972Z,90.60
2019-04-20T00:31:58.306Z,90.87
2019-04-20T00:34:21.451Z,95.10
2019-04-20T00:36:45.346Z,88.62
2019-04-20T00:39:16.534Z,93.17
2019-04-20T00:41:51.491Z,93.00
2019-04-20T00:44:21.956Z,95.70
2019-04-20T00:46:55.576Z,91.90
2019-04-20T00:49:33.321Z,94.07
2019-04-20T00:52:15.252Z,90.97
2019-04-20T00:54:17.969Z,93.57
2019-04-20T00:56:47.823Z,90.10
2019-04-20T00:59:29.033Z,90.03
2019-04-20T01:02:03.922Z,93.40
2019-04-20T01:04:38.820Z,95.87
2019-04-20T01:07:17.689Z,96.15
2019-04-20T01:09:52.016Z,96.85
2019-04-20T01:12:26.048Z,95.22
2019-04-20T01:14:55.758Z,89.47
2019-04-20T01:17:21.778Z,89.97
2019-04-20T01:19:52.787Z,87.72
2019-04-20T01:22:25.122Z,91.03
2019-04-20T01:24:52.970Z,93.50
2019-04-20T01:27:32.154Z,91.30
2019-04-20T01:30:03.411Z,90.53
2019-04-20T01:32:32.003Z,90.53
2019-04-20T01:35:04.761Z,90.07
2019-04-20T01:37:36.521Z,91.00
2019-04-20T01:39:58.592Z,92.78
2019-04-20T01:42:26.054Z,92.10
2019-04-20T01:44:56.696Z,91.97
2019-04-20T01:47:35.715Z,92.93
2019-04-20T01:50:03.804Z,92.25
2019-04-20T01:52:34.976Z,92.77
2019-04-20T01:55:24.456Z,90.10
2019-04-20T01:58:02.896Z,92.75
2019-04-20T02:00:23.263Z,87.50
2019-04-20T02:02:58.383Z,93.97
2019-04-20T02:05:28.044Z,87.23
2019-04-20T02:07:55.439Z,89.47
2019-04-20T02:10:33.347Z,92.70
2019-04-20T02:12:59.414Z,90.45
2019-04-20T02:15:32.995Z,90.17
2019-04-20T02:18:10.285Z,91.32
2019-04-20T02:20:44.596Z,89.93
2019-04-20T02:23:09.626Z,87.95
2019-04-20T02:25:25.175Z,89.52
2019-04-20T02:28:07.598Z,92.57
2019-04-20T02:31:06.331Z,92.00
2019-04-20T02:36:33.611Z,93.07
2019-04-20T02:39:05.159Z,89.57
2019-04-20T02:41:17.812Z,92.60
2019-04-20T02:44:03.522Z,90.53
2019-04-20T02:46:20.385Z,89.83
2019-04-20T02:48:52.530Z,91.33
2019-04-20T02:51:13.442Z,89.67
2019-04-20T02:56:35.509Z,86.32
2019-04-20T02:59:02.475Z,86.12
2019-04-20T03:01:21.830Z,90.27
2019-04-20T03:03:39.121Z,88.17
2019-04-20T03:06:17.219Z,87.40
2019-04-20T03:08:56.370Z,85.90
2019-04-20T03:11:29.536Z,87.33
2019-04-20T03:13:54.567Z,86.37
2019-04-20T03:16:25.594Z,85.03
2019-04-20T03:18:57.444Z,84.72
2019-04-20T03:21:32.793Z,83.74
2019-04-20T03:24:06.778Z,83.45
2019-04-20T03:26:48.073Z,82.62
2019-04-20T03:29:18.814Z,81.67
2019-04-20T03:35:01.059Z,84.57
2019-04-20T03:37:06.881Z,81.08
2019-04-20T03:39:29.840Z,81.90
2019-04-20T03:41:44.412Z,87.50
2019-04-20T03:44:15.373Z,86.67
2019-04-20T03:46:47.864Z,85.85
2019-04-20T03:49:39.699Z,83.77
2019-04-20T03:52:02.764Z,84.70
2019-04-20T03:54:28.626Z,84.00
2019-04-20T03:57:18.385Z,81.70
2019-04-20T03:59:48.730Z,84.15
2019-04-20T04:05:02.793Z,84.65
2019-04-20T04:07:21.958Z,81.75
2019-04-20T04:10:03.323Z,83.67
2019-04-20T04:12:37.124Z,85.63
2019-04-20T04:15:02.309Z,86.82
2019-04-20T04:17:36.669Z,90.17
2019-04-20T04:20:08.781Z,86.12
2019-04-20T04:22:50.306Z,84.97
2019-04-20T04:25:18.422Z,86.20
2019-04-20T04:27:55.099Z,89.20
2019-04-20T04:30:18.312Z,88.83
2019-04-20T04:33:20.119Z,88.10
2019-04-20T04:35:20.168Z,87.46
2019-04-20T04:37:57.015Z,89.05
2019-04-20T04:40:39.895Z,92.30
2019-04-20T04:42:58.439Z,92.50
2019-04-20T04:45:14.158Z,91.75
2019-04-20T04:47:40.868Z,93.07
2019-04-20T04:50:16.416Z,89.97
2019-04-20T04:52:53.657Z,92.27
2019-04-20T04:55:23.764Z,91.13
2019-04-20T04:57:41.682Z,91.60
2019-04-20T05:00:20.047Z,90.43
2019-04-20T05:02:51.715Z,89.90
2019-04-20T05:05:36.022Z,91.82
2019-04-20T05:07:59.443Z,91.17
2019-04-20T05:10:20.807Z,91.32
2019-04-20T05:12:50.170Z,92.00
2019-04-20T05:15:32.550Z,91.40
2019-04-20T05:18:11.856Z,92.08
2019-04-20T05:20:46.958Z,94.35
2019-04-20T05:23:08.563Z,93.17
2019-04-20T05:25:58.026Z,93.10
2019-04-20T05:28:39.244Z,96.46
2019-04-20T05:31:00.928Z,90.10
2019-04-20T05:33:42.313Z,86.03
2019-04-20T05:36:17.595Z,86.25
2019-04-20T05:39:13.089Z,87.27
2019-04-20T05:41:20.149Z,86.92
2019-04-20T05:43:52.243Z,79.72
2019-04-20T05:46:26.684Z,75.75
2019-04-20T05:49:00.437Z,71.17
2019-04-20T05:51:36.438Z,70.65
2019-04-20T05:54:04.441Z,68.60
2019-04-20T05:56:38.033Z,62.40
2019-04-20T05:58:59.848Z,63.25
2019-04-20T06:01:31.831Z,62.43
2019-04-20T06:03:59.375Z,60.17
2019-04-20T06:06:34.556Z,59.27
2019-04-20T06:11:34.334Z,57.27
2019-04-20T06:13:59.014Z,55.12
2019-04-20T06:16:52.647Z,56.50
2019-04-20T06:19:24.355Z,54.23
2019-04-20T06:21:54.288Z,53.77
2019-04-20T06:24:18.379Z,53.20
2019-04-20T06:26:55.120Z,52.30
2019-04-20T06:29:16.761Z,51.35
2019-04-20T06:31:53.356Z,51.18
2019-04-20T06:34:30.236Z,50.20
2019-04-20T06:36:55.832Z,49.33
2019-04-20T06:39:31.170Z,51.97
2019-04-20T06:42:13.765Z,51.37
2019-04-20T06:44:31.734Z,48.67
2019-04-20T06:47:15.736Z,50.30
2019-04-20T06:49:35.344Z,48.33
2019-04-20T06:52:10.130Z,48.05
2019-04-20T06:54:36.102Z,49.40
2019-04-20T06:57:06.563Z,48.13
2019-04-20T06:59:43.132Z,50.30
2019-04-20T07:07:09.712Z,50.08
2019-04-20T07:09:47.437Z,50.30
2019-04-20T07:12:06.428Z,49.23
2019-04-20T07:14:34.562Z,50.37
2019-04-20T07:17:20.301Z,49.13
2019-04-20T07:19:45.344Z,51.53
2019-04-20T07:22:32.116Z,49.15
2019-04-20T07:25:05.414Z,48.58
2019-04-20T07:27:27.830Z,49.05
2019-04-20T07:29:59.019Z,51.10
2019-04-20T07:32:32.619Z,49.52
2019-04-20T07:35:08.474Z,49.85
2019-04-20T07:38:06.996Z,48.97
2019-04-20T07:40:17.617Z,49.77
2019-04-20T07:42:49.493Z,48.17
2019-04-20T07:45:21.863Z,51.37
2019-04-20T07:50:13.303Z,51.13
2019-04-20T07:52:40.825Z,51.58
2019-04-20T07:55:33.922Z,50.40
2019-04-20T07:57:42.840Z,50.83
2019-04-20T08:00:27.546Z,51.13
2019-04-20T08:03:03.048Z,48.52
2019-04-20T08:05:31.003Z,48.65
2019-04-20T08:08:02.733Z,50.03
2019-04-20T08:10:35.287Z,49.70
2019-04-20T08:13:19.374Z,49.15
2019-04-20T08:15:57.037Z,48.55
2019-04-20T08:18:06.511Z,47.25
2019-04-20T08:20:43.916Z,47.27
2019-04-20T08:23:12.381Z,50.20
2019-04-20T08:25:31.647Z,49.03
2019-04-20T08:27:57.075Z,47.58
2019-04-20T08:30:41.382Z,47.67
2019-04-20T08:33:28.008Z,48.63
2019-04-20T08:36:09.172Z,49.53
2019-04-20T08:41:00.168Z,47.98
2019-04-20T08:43:43.782Z,45.10
2019-04-20T08:46:05.290Z,48.15
2019-04-20T08:48:34.423Z,47.17
2019-04-20T08:51:03.512Z,48.20
2019-04-20T08:53:36.859Z,47.37
2019-04-20T08:56:02.244Z,47.15
2019-04-20T08:58:20.295Z,45.65
2019-04-20T09:00:56.565Z,43.58
2019-04-20T09:03:25.359Z,47.07
2019-04-20T09:06:01.022Z,47.13
2019-04-20T09:08:26.313Z,43.90
2019-04-20T09:11:10.858Z,43.37
2019-04-20T09:13:33.108Z,43.63
2019-04-20T09:15:53.565Z,43.50
2019-04-20T09:18:43.287Z,43.42
2019-04-20T09:21:13.952Z,43.35
2019-04-20T09:23:57.885Z,42.60
2019-04-20T09:26:56.123Z,44.63
2019-04-20T09:29:06.948Z,43.13
2019-04-20T09:31:44.810Z,44.47
2019-04-20T09:34:26.317Z,44.60
2019-04-20T09:37:14.161Z,43.90
2019-04-20T09:39:52.938Z,45.30
2019-04-20T09:42:17.630Z,44.40
2019-04-20T09:44:59.046Z,44.50
2019-04-20T09:47:36.890Z,42.23
2019-04-20T09:50:22.743Z,43.27
2019-04-20T09:52:59.179Z,41.63
2019-04-20T09:55:26.790Z,41.77
2019-04-20T09:58:04.890Z,40.38
2019-04-20T10:00:42.146Z,41.60
2019-04-20T10:03:02.298Z,41.30
2019-04-20T10:05:37.879Z,42.35
2019-04-20T10:08:11.798Z,39.80
2019-04-20T10:10:45.603Z,39.83
2019-04-20T10:13:17.456Z,40.78
2019-04-20T10:15:55.690Z,41.55
2019-04-20T10:18:34.177Z,39.27
2019-04-20T10:21:11.689Z,39.30
2019-04-20T10:23:42.839Z,37.50
2019-04-20T10:26:14.291Z,35.92
2019-04-20T10:28:45.534Z,38.00
2019-04-20T10:31:17.879Z,37.60
2019-04-20T10:33:49.325Z,35.63
2019-04-20T10:36:41.757Z,36.93
2019-04-20T10:39:14.356Z,36.30
2019-04-20T10:41:52.613Z,35.30
2019-04-20T10:44:20.933Z,35.63
2019-04-20T10:46:53.363Z,35.50
2019-04-20T10:49:22.917Z,34.23
2019-04-20T10:51:55.774Z,33.67
2019-04-20T10:54:26.664Z,33.83
2019-04-20T10:56:57.790Z,33.78
2019-04-20T10:59:31.748Z,36.03
2019-04-20T11:02:05.660Z,34.43
2019-04-20T11:04:38.724Z,31.17
2019-04-20T11:07:12.502Z,32.40
2019-04-20T11:09:44.822Z,31.95
2019-04-20T11:12:18.048Z,30.87
2019-04-20T11:14:48.062Z,30.82
2019-04-20T11:17:20.417Z,30.20
2019-04-20T11:19:50.055Z,30.95
2019-04-20T11:22:22.252Z,28.00
2019-04-20T11:24:52.649Z,28.23
2019-04-20T11:27:23.071Z,28.47
2019-04-20T11:29:54.001Z,28.70
2019-04-20T11:32:26.143Z,28.00
2019-04-20T11:35:02.241Z,28.00
2019-04-20T11:37:30.776Z,27.17
2019-04-20T11:40:03.226Z,27.73
2019-04-20T11:42:33.802Z,28.10
2019-04-20T11:45:04.643Z,26.40
2019-04-20T11:47:33.697Z,27.25
2019-04-20T11:50:03.779Z,27.87
2019-04-20T11:52:39.918Z,25.82
2019-04-20T11:55:08.919Z,26.20
2019-04-20T11:57:39.552Z,24.93
2019-04-20T12:00:11.044Z,24.77
2019-04-20T12:02:46.156Z,28.30
2019-04-20T12:05:27.318Z,25.57
2019-04-20T12:07:53.182Z,24.95
2019-04-20T12:10:24.176Z,24.10
2019-04-20T12:12:55.643Z,23.90
2019-04-20T12:15:24.902Z,24.20
2019-04-20T12:17:57.826Z,24.72
2019-04-20T12:20:29.334Z,27.57
2019-04-20T12:23:04.253Z,27.73
2019-04-20T12:25:36.212Z,26.70
2019-04-20T12:28:05.338Z,27.47
2019-04-20T12:30:39.613Z,27.67
2019-04-20T12:33:11.520Z,28.67
2019-04-20T12:35:42.498Z,27.33
2019-04-20T12:38:14.879Z,27.52
2019-04-20T12:40:46.274Z,28.50
2019-04-20T12:43:17.347Z,29.12
2019-04-20T12:45:48.039Z,28.45
2019-04-20T12:48:17.611Z,26.07
2019-04-20T12:50:53.367Z,28.20
2019-04-20T12:53:24.545Z,27.17
2019-04-20T12:55:54.795Z,29.02
2019-04-20T12:58:24.051Z,30.17
2019-04-20T13:00:54.346Z,29.77
2019-04-20T13:03:25.948Z,29.20
2019-04-20T13:05:56.114Z,29.23
2019-04-20T13:08:30.357Z,31.50
2019-04-20T13:11:13.272Z,30.65
2019-04-20T13:13:58.607Z,29.53
2019-04-20T13:16:30.341Z,27.87
2019-04-20T13:19:01.545Z,31.80
2019-04-20T13:21:32.912Z,30.27
2019-04-20T13:24:05.170Z,32.25
2019-04-20T13:26:36.966Z,31.87
2019-04-20T13:29:10.962Z,31.93
2019-04-20T13:31:48.102Z,31.00
2019-04-20T13:34:20.151Z,30.88
2019-04-20T13:36:50.936Z,31.02
2019-04-20T13:39:20.209Z,29.67
2019-04-20T13:41:59.816Z,29.67
2019-04-20T13:44:21.926Z,29.90
2019-04-20T13:46:51.154Z,29.00
2019-04-20T13:49:20.987Z,31.23
2019-04-20T13:51:50.830Z,29.27
2019-04-20T13:54:24.541Z,30.93
2019-04-20T13:56:51.974Z,30.43
2019-04-20T13:59:25.898Z,28.87
2019-04-20T14:01:57.058Z,30.05
2019-04-20T14:04:28.510Z,29.40
2019-04-20T14:06:59.480Z,32.73
2019-04-20T14:09:29.618Z,31.55
2019-04-20T14:12:11.851Z,30.50
2019-04-20T14:14:32.840Z,31.50
2019-04-20T14:17:03.283Z,30.00
2019-04-20T14:19:32.126Z,28.83
2019-04-20T14:22:02.112Z,30.50
2019-04-20T14:24:33.204Z,31.20
2019-04-20T14:27:03.343Z,31.27
2019-04-20T14:29:32.908Z,29.95
2019-04-20T14:32:04.718Z,30.62
2019-04-20T14:34:33.328Z,32.15
2019-04-20T14:37:02.947Z,28.42
2019-04-20T14:39:32.325Z,29.57
2019-04-20T14:42:02.454Z,28.90
2019-04-20T14:44:32.067Z,29.12
2019-04-20T14:47:03.952Z,28.92
2019-04-20T14:49:32.678Z,29.92
2019-04-20T14:52:08.070Z,29.23
2019-04-20T14:54:37.262Z,30.80
2019-04-20T14:57:07.589Z,32.03
2019-04-20T14:59:37.996Z,30.50
2019-04-20T15:02:08.685Z,28.20
2019-04-20T15:04:39.064Z,30.33
2019-04-20T15:07:10.776Z,30.80
2019-04-20T15:09:42.546Z,30.85
2019-04-20T15:12:13.060Z,30.50
2019-04-20T15:14:42.751Z,31.80
2019-04-20T15:17:13.522Z,31.03
2019-04-20T15:19:45.486Z,29.48
2019-04-20T15:22:35.797Z,30.12
2019-04-20T15:25:09.573Z,32.56
2019-04-20T15:27:42.510Z,29.10
2019-04-20T15:30:09.203Z,28.47
2019-04-20T15:32:38.957Z,29.50
2019-04-20T15:35:11.099Z,30.62
2019-04-20T15:37:45.102Z,29.45
2019-04-20T15:40:21.832Z,28.67
2019-04-20T15:42:59.063Z,28.10
2019-04-20T15:45:25.260Z,28.60
2019-04-20T15:47:54.599Z,28.13
2019-04-20T15:50:23.383Z,28.40
2019-04-20T15:52:55.293Z,28.60
2019-04-20T15:55:30.074Z,27.90
2019-04-20T15:57:55.561Z,28.05
2019-04-20T16:00:26.678Z,27.43
2019-04-20T16:03:01.291Z,27.25
2019-04-20T16:05:51.411Z,26.97
2019-04-20T16:08:32.245Z,27.30
2019-04-20T16:11:04.599Z,26.45
2019-04-20T16:13:40.249Z,26.80
2019-04-20T16:16:07.882Z,27.27
2019-04-20T16:18:37.062Z,27.50
2019-04-20T16:21:11.642Z,27.15
2019-04-20T16:23:48.534Z,27.82
2019-04-20T16:26:25.869Z,28.00
2019-04-20T16:28:57.593Z,27.45
2019-04-20T16:31:26.909Z,28.12
2019-04-20T16:33:58.530Z,28.43
2019-04-20T16:36:26.653Z,26.80
2019-04-20T16:38:57.383Z,26.73
2019-04-20T16:41:26.736Z,28.70
2019-04-20T16:43:55.534Z,27.63
2019-04-20T16:46:25.830Z,28.40
2019-04-20T16:48:57.028Z,27.15
2019-04-20T16:51:27.323Z,29.25
2019-04-20T16:53:56.351Z,27.82
2019-04-20T16:56:24.900Z,27.62
2019-04-20T16:59:00.495Z,26.65
2019-04-20T17:01:32.308Z,27.42
2019-04-20T17:04:10.844Z,27.45
2019-04-20T17:06:40.103Z,28.67
2019-04-20T17:09:12.169Z,28.80
2019-04-20T17:11:41.558Z,28.85
2019-04-20T17:14:10.527Z,28.83
2019-04-20T17:16:40.010Z,28.25
2019-04-20T17:19:20.183Z,28.57
2019-04-20T17:21:50.725Z,28.38
2019-04-20T17:24:20.055Z,28.85
2019-04-20T17:27:08.792Z,27.42
2019-04-20T17:29:54.812Z,26.42
2019-04-20T17:32:25.462Z,26.57
2019-04-20T17:35:12.714Z,27.87
2019-04-20T17:37:24.575Z,28.43
2019-04-20T17:40:12.907Z,28.60
2019-04-20T17:42:41.572Z,26.67
2019-04-20T17:45:04.091Z,26.60
2019-04-20T17:47:43.120Z,27.00
2019-04-20T17:50:16.672Z,26.17
2019-04-20T17:52:46.155Z,27.73
2019-04-20T17:55:17.588Z,25.57
2019-04-20T17:57:37.470Z,25.65
2019-04-20T18:00:13.797Z,25.32
2019-04-20T18:02:58.930Z,25.15
2019-04-20T18:05:33.944Z,23.80
2019-04-20T18:08:06.968Z,25.55
2019-04-20T18:10:30.294Z,24.05
2019-04-20T18:12:51.931Z,23.83
2019-04-20T18:15:36.019Z,22.83
2019-04-20T18:18:04.899Z,22.35
2019-04-20T18:20:20.918Z,22.23
2019-04-20T18:22:55.232Z,22.33
2019-04-20T18:25:53.435Z,23.00
2019-04-20T18:28:09.557Z,21.33
2019-04-20T18:30:43.632Z,21.80
2019-04-20T18:33:07.371Z,22.06
2019-04-20T18:35:41.280Z,21.82
2019-04-20T18:38:12.623Z,20.60
2019-04-20T18:40:49.309Z,22.32
2019-04-20T18:43:14.997Z,23.10
2019-04-20T18:45:58.294Z,21.37
2019-04-20T18:48:33.955Z,20.08
2019-04-20T18:50:42.203Z,21.60
2019-04-20T18:53:14.660Z,22.15
2019-04-20T18:55:47.031Z,22.52
2019-04-20T18:58:11.076Z,22.50
2019-04-20T19:00:44.471Z,23.23
2019-04-20T19:03:18.286Z,23.47
2019-04-20T19:05:42.025Z,24.27
2019-04-20T19:08:13.780Z,25.10
2019-04-20T19:10:43.503Z,24.35
2019-04-20T19:13:22.351Z,25.30
2019-04-20T19:16:23.245Z,23.93
2019-04-20T19:18:58.163Z,23.97
2019-04-20T19:21:15.188Z,23.60
2019-04-20T19:23:53.476Z,21.73
2019-04-20T19:26:18.165Z,19.60
2019-04-20T19:28:50.553Z,19.27
2019-04-20T19:31:28.940Z,18.53
2019-04-20T19:34:07.212Z,19.77
2019-04-20T19:36:28.787Z,19.37
2019-04-20T19:39:01.823Z,19.97
2019-04-20T19:41:31.954Z,20.67
2019-04-20T19:44:05.284Z,20.40
2019-04-20T19:46:56.179Z,21.70
2019-04-20T19:48:59.560Z,22.07
2019-04-20T19:51:41.150Z,23.65
2019-04-20T19:54:13.220Z,22.90
2019-04-20T19:56:42.634Z,25.67
2019-04-20T19:59:08.957Z,24.53
2019-04-20T20:01:27.600Z,22.70
2019-04-20T20:04:02.487Z,24.50
2019-04-20T20:06:37.782Z,24.23
2019-04-20T20:09:04.214Z,24.82
2019-04-20T20:11:35.349Z,25.40
2019-04-20T20:14:04.318Z,25.20
2019-04-20T20:17:01.542Z,26.50
2019-04-20T20:19:29.565Z,24.90
2019-04-20T20:21:59.055Z,25.45
2019-04-20T20:24:19.200Z,26.30
2019-04-20T20:26:53.507Z,27.02
2019-04-20T20:29:25.084Z,26.93
2019-04-20T20:32:07.248Z,25.68
2019-04-20T20:34:29.087Z,25.60
2019-04-20T20:37:00.029Z,26.20
2019-04-20T20:39:29.049Z,27.13
2019-04-20T20:42:20.432Z,27.35
2019-04-20T20:44:49.826Z,26.45
2019-04-20T20:47:31.670Z,26.77
2019-04-20T20:50:06.993Z,28.30
2019-04-20T20:52:27.691Z,26.55
2019-04-20T20:54:52.742Z,26.23
2019-04-20T20:57:18.497Z,26.93
2019-04-20T20:59:51.390Z,26.17
2019-04-20T21:02:19.747Z,28.53
2019-04-20T21:04:43.657Z,27.55
2019-04-20T21:07:12.859Z,27.50
2019-04-20T21:09:41.927Z,27.60
2019-04-20T21:12:15.949Z,26.68
2019-04-20T21:14:44.123Z,28.35
2019-04-20T21:17:17.915Z,29.47
2019-04-20T21:19:58.023Z,26.65
2019-04-20T21:22:22.706Z,28.20
2019-04-20T21:24:48.402Z,26.07
2019-04-20T21:27:19.917Z,25.40
2019-04-20T21:29:51.532Z,26.40
2019-04-20T21:32:19.803Z,27.45
2019-04-20T21:34:55.665Z,24.72
2019-04-20T21:37:23.056Z,25.73
2019-04-20T21:39:57.427Z,24.47
2019-04-20T21:42:25.217Z,25.23
2019-04-20T21:45:04.013Z,23.18
2019-04-20T21:47:30.761Z,22.77
2019-04-20T21:50:05.770Z,22.10
2019-04-20T21:52:32.256Z,23.40
2019-04-20T21:54:56.208Z,24.30
2019-04-20T21:57:26.217Z,25.45
2019-04-20T22:00:08.494Z,28.00
2019-04-20T22:02:32.771Z,26.23
2019-04-20T22:05:01.256Z,25.00
2019-04-20T22:07:32.351Z,26.33
2019-04-20T22:10:02.421Z,25.95
2019-04-20T22:12:39.763Z,26.57
2019-04-20T22:15:10.128Z,26.33
2019-04-20T22:17:35.998Z,25.13
2019-04-20T22:20:19.162Z,25.72
2019-04-20T22:22:52.013Z,25.75
2019-04-20T22:25:28.350Z,27.82
2019-04-20T22:27:40.526Z,27.07
2019-04-20T22:30:12.173Z,28.20
2019-04-20T22:32:44.183Z,28.05
2019-04-20T22:35:15.396Z,27.50
2019-04-20T22:38:08.337Z,28.95
2019-04-20T22:40:33.336Z,27.80
2019-04-20T22:43:02.106Z,28.55
2019-04-20T22:45:33.984Z,28.65
2019-04-20T22:48:06.741Z,27.35
2019-04-20T22:50:46.151Z,28.10
2019-04-20T22:53:17.983Z,26.90
2019-04-20T22:55:55.137Z,27.25
2019-04-20T22:58:22.462Z,28.52
2019-04-20T23:00:43.423Z,26.60
2019-04-20T23:03:07.186Z,27.64
2019-04-20T23:05:38.500Z,29.27
2019-04-20T23:08:08.646Z,28.50
2019-04-20T23:10:40.878Z,28.10
2019-04-20T23:13:09.530Z,27.67
2019-04-20T23:15:43.370Z,28.87
2019-04-20T23:18:10.400Z,29.57
2019-04-20T23:20:41.132Z,28.83
2019-04-20T23:23:15.845Z,30.07
2019-04-20T23:25:41.059Z,30.37
2019-04-20T23:28:13.952Z,30.27
2019-04-20T23:30:42.269Z,31.68
2019-04-20T23:33:11.805Z,31.00
2019-04-20T23:35:43.724Z,31.00
2019-04-20T23:38:16.424Z,32.10
2019-04-20T23:40:41.741Z,31.57
2019-04-20T23:43:18.878Z,32.23
2019-04-20T23:46:01.143Z,32.20
2019-04-20T23:51:40.665Z,32.77
2019-04-20T23:54:02.961Z,33.45
2019-04-20T23:56:24.196Z,34.70
2019-04-20T23:58:56.732Z,35.27
